createdAt,value
2023-05-19T00:00:29.164Z,101158.06
2023-05-19T00:03:22.138Z,101155.48
2023-05-19T00:05:54.003Z,101157.59
2023-05-19T00:08:25.015Z,101158.80
2023-05-19T00:10:54.231Z,101158.65
2023-05-19T00:13:24.031Z,101155.40
2023-05-19T00:15:53.436Z,101158.14
2023-05-19T00:18:23.629Z,101163.93
2023-05-19T00:20:53.068Z,101164.40
2023-05-19T00:23:21.830Z,101162.70
2023-05-19T00:25:50.417Z,101164.55
2023-05-19T00:28:19.329Z,101163.02
2023-05-19T00:30:48.608Z,101164.71
2023-05-19T00:33:17.624Z,101163.56
2023-05-19T00:35:46.402Z,101164.65
2023-05-19T00:38:15.287Z,101162.11
2023-05-19T00:40:44.071Z,101162.78
2023-05-19T00:43:14.009Z,101164.41
2023-05-19T00:45:42.882Z,101165.19
2023-05-19T00:48:12.708Z,101162.76
2023-05-19T00:50:42.005Z,101158.56
2023-05-19T00:53:10.888Z,101162.58
2023-05-19T00:55:41.538Z,101164.02
2023-05-19T00:58:11.559Z,101164.95
2023-05-19T01:00:41.087Z,101163.70
2023-05-19T01:03:13.743Z,101166.63
2023-05-19T01:05:45.170Z,101165.33
2023-05-19T01:08:14.287Z,101162.48
2023-05-19T01:10:43.246Z,101165.05
2023-05-19T01:13:12.569Z,101162.94
2023-05-19T01:16:08.387Z,101163.70
2023-05-19T01:18:48.340Z,101163.34
2023-05-19T01:21:39.476Z,101159.73
2023-05-19T01:24:18.574Z,101155.61
2023-05-19T01:27:04.651Z,101155.89
2023-05-19T01:29:55.070Z,101162.51
2023-05-19T01:32:24.818Z,101161.61
2023-05-19T01:34:54.396Z,101164.17
2023-05-19T01:37:24.513Z,101164.44
2023-05-19T01:39:54.008Z,101164.75
2023-05-19T01:42:23.092Z,101165.44
2023-05-19T01:44:52.415Z,101164.16
2023-05-19T01:47:21.399Z,101168.16
2023-05-19T01:49:50.371Z,101169.81
2023-05-19T01:52:19.178Z,101165.84
2023-05-19T01:54:47.983Z,101164.98
2023-05-19T01:57:23.827Z,101162.77
2023-05-19T02:00:25.473Z,101158.33
2023-05-19T02:03:16.477Z,101162.09
2023-05-19T02:06:07.284Z,101163.86
2023-05-19T02:08:59.540Z,101163.56
2023-05-19T02:11:43.464Z,101164.26
2023-05-19T02:14:23.514Z,101160.30
2023-05-19T02:16:53.239Z,101160.96
2023-05-19T02:19:33.643Z,101162.91
2023-05-19T02:22:03.667Z,101158.82
2023-05-19T02:24:32.516Z,101155.58
2023-05-19T02:27:01.645Z,101155.75
2023-05-19T02:29:30.791Z,101153.61
2023-05-19T02:32:01.395Z,101152.86
2023-05-19T02:34:30.313Z,101151.64
2023-05-19T02:36:59.104Z,101147.14
2023-05-19T02:39:29.947Z,101145.36
2023-05-19T02:41:58.953Z,101144.14
2023-05-19T02:44:28.642Z,101141.10
2023-05-19T02:46:58.958Z,101141.94
2023-05-19T02:49:31.127Z,101143.43
2023-05-19T02:52:00.143Z,101143.91
2023-05-19T02:54:33.977Z,101145.51
2023-05-19T02:57:03.011Z,101142.98
2023-05-19T02:59:32.745Z,101144.42
2023-05-19T03:02:02.433Z,101147.21
2023-05-19T03:04:31.853Z,101151.65
2023-05-19T03:07:00.772Z,101153.14
2023-05-19T03:09:29.619Z,101155.55
2023-05-19T03:12:04.207Z,101154.66
2023-05-19T03:14:34.699Z,101153.13
2023-05-19T03:17:04.924Z,101154.54
2023-05-19T03:19:33.913Z,101148.70
2023-05-19T03:22:03.000Z,101151.84
2023-05-19T03:24:33.315Z,101148.65
2023-05-19T03:27:03.131Z,101148.52
2023-05-19T03:29:33.257Z,101152.20
2023-05-19T03:32:02.373Z,101155.79
2023-05-19T03:34:33.299Z,101150.65
2023-05-19T03:37:02.160Z,101151.36
2023-05-19T03:39:31.277Z,101152.70
2023-05-19T03:42:00.267Z,101148.56
2023-05-19T03:44:29.343Z,101148.46
2023-05-19T03:46:58.366Z,101143.16
2023-05-19T03:49:46.272Z,101143.43
2023-05-19T03:52:45.899Z,101144.40
2023-05-19T03:55:24.741Z,101141.02
2023-05-19T03:57:53.618Z,101143.66
2023-05-19T04:00:22.918Z,101139.05
2023-05-19T04:02:52.865Z,101144.25
2023-05-19T04:05:22.016Z,101146.21
2023-05-19T04:07:50.816Z,101145.78
2023-05-19T04:10:20.809Z,101143.66
2023-05-19T04:12:50.282Z,101144.80
2023-05-19T04:15:19.309Z,101143.92
2023-05-19T04:17:48.166Z,101143.61
2023-05-19T04:20:18.337Z,101146.77
2023-05-19T04:22:47.222Z,101153.14
2023-05-19T04:25:17.135Z,101154.16
2023-05-19T04:27:46.561Z,101154.23
2023-05-19T04:30:22.558Z,101151.90
2023-05-19T04:32:52.840Z,101155.30
2023-05-19T04:35:23.356Z,101154.05
2023-05-19T04:37:55.018Z,101154.94
2023-05-19T04:40:28.077Z,101152.83
2023-05-19T04:42:58.526Z,101154.09
2023-05-19T04:45:27.521Z,101153.49
2023-05-19T04:47:59.017Z,101155.34
2023-05-19T04:50:29.302Z,101157.08
2023-05-19T04:52:59.912Z,101157.80
2023-05-19T04:55:29.316Z,101160.09
2023-05-19T04:57:58.137Z,101160.48
2023-05-19T05:00:27.171Z,101163.73
2023-05-19T05:03:00.997Z,101163.20
2023-05-19T05:05:31.955Z,101165.83
2023-05-19T05:08:00.932Z,101167.33
2023-05-19T05:10:33.447Z,101167.80
2023-05-19T05:13:02.706Z,101172.54
2023-05-19T05:15:32.612Z,101173.96
2023-05-19T05:18:03.428Z,101171.95
2023-05-19T05:20:33.164Z,101167.56
2023-05-19T05:23:02.929Z,101169.20
2023-05-19T05:25:33.125Z,101167.54
2023-05-19T05:28:05.773Z,101167.77
2023-05-19T05:30:36.774Z,101167.48
2023-05-19T05:33:06.815Z,101170.36
2023-05-19T05:35:40.278Z,101163.73
2023-05-19T05:38:12.100Z,101167.94
2023-05-19T05:40:41.490Z,101166.60
2023-05-19T05:43:10.675Z,101168.98
2023-05-19T05:45:44.755Z,101173.38
2023-05-19T05:48:14.610Z,101170.94
2023-05-19T05:50:45.412Z,101174.84
2023-05-19T05:53:19.950Z,101173.40
2023-05-19T05:55:50.613Z,101177.39
2023-05-19T05:58:21.836Z,101179.55
2023-05-19T06:00:51.974Z,101174.52
2023-05-19T06:03:27.149Z,101174.79
2023-05-19T06:05:57.468Z,101179.46
2023-05-19T06:08:26.638Z,101180.96
2023-05-19T06:10:56.141Z,101182.11
2023-05-19T06:13:26.353Z,101186.32
2023-05-19T06:15:55.782Z,101189.66
2023-05-19T06:18:33.662Z,101188.95
2023-05-19T06:21:03.978Z,101187.95
2023-05-19T06:23:33.385Z,101188.08
2023-05-19T06:26:02.896Z,101187.63
2023-05-19T06:28:32.411Z,101189.19
2023-05-19T06:31:02.167Z,101184.65
2023-05-19T06:33:43.828Z,101183.44
2023-05-19T06:36:12.690Z,101186.79
2023-05-19T06:38:42.525Z,101187.50
2023-05-19T06:41:11.786Z,101189.83
2023-05-19T06:43:40.701Z,101190.98
2023-05-19T06:46:13.760Z,101191.27
2023-05-19T06:48:42.578Z,101186.73
2023-05-19T06:51:12.697Z,101188.36
2023-05-19T06:53:42.099Z,101188.02
2023-05-19T06:56:11.497Z,101192.45
2023-05-19T06:58:42.053Z,101192.60
2023-05-19T07:01:11.327Z,101195.61
2023-05-19T07:03:44.909Z,101193.30
2023-05-19T07:06:13.939Z,101196.63
2023-05-19T07:08:43.425Z,101195.66
2023-05-19T07:11:13.941Z,101196.36
2023-05-19T07:13:43.049Z,101199.54
2023-05-19T07:16:17.423Z,101202.02
2023-05-19T07:18:47.010Z,101202.27
2023-05-19T07:21:16.172Z,101204.09
2023-05-19T07:23:45.377Z,101206.32
2023-05-19T07:26:14.539Z,101203.95
2023-05-19T07:28:44.289Z,101206.41
2023-05-19T07:31:15.232Z,101206.35
2023-05-19T07:33:44.193Z,101207.57
2023-05-19T07:36:13.495Z,101209.51
2023-05-19T07:38:42.603Z,101211.64
2023-05-19T07:41:12.324Z,101209.01
2023-05-19T07:43:41.320Z,101203.27
2023-05-19T07:46:10.673Z,101202.59
2023-05-19T07:48:39.619Z,101200.52
2023-05-19T07:51:11.038Z,101199.70
2023-05-19T07:53:41.356Z,101203.69
2023-05-19T07:56:10.377Z,101205.84
2023-05-19T07:58:39.494Z,101203.42
2023-05-19T08:01:08.874Z,101205.43
2023-05-19T08:03:39.181Z,101205.11
2023-05-19T08:06:08.691Z,101209.00
2023-05-19T08:08:38.147Z,101206.45
2023-05-19T08:11:07.588Z,101209.48
2023-05-19T08:13:37.312Z,101207.12
2023-05-19T08:16:07.088Z,101206.23
2023-05-19T08:18:35.951Z,101204.85
2023-05-19T08:21:05.125Z,101203.98
2023-05-19T08:23:34.226Z,101200.55
2023-05-19T08:26:03.618Z,101198.54
2023-05-19T08:28:32.690Z,101200.58
2023-05-19T08:31:02.275Z,101200.31
2023-05-19T08:33:31.299Z,101200.38
2023-05-19T08:36:00.900Z,101198.06
2023-05-19T08:38:30.013Z,101200.92
2023-05-19T08:40:59.391Z,101202.23
2023-05-19T08:43:28.919Z,101206.29
2023-05-19T08:46:00.555Z,101208.20
2023-05-19T08:48:31.176Z,101207.77
2023-05-19T08:51:22.297Z,101210.52
2023-05-19T08:53:52.415Z,101206.48
2023-05-19T08:56:25.406Z,101202.37
2023-05-19T08:58:54.929Z,101201.05
2023-05-19T09:01:24.526Z,101199.77
2023-05-19T09:03:53.888Z,101199.06
2023-05-19T09:06:23.212Z,101192.94
2023-05-19T09:08:52.120Z,101192.72
2023-05-19T09:11:23.452Z,101191.14
2023-05-19T09:13:52.775Z,101187.27
2023-05-19T09:16:23.660Z,101192.06
2023-05-19T09:18:57.590Z,101190.52
2023-05-19T09:21:33.680Z,101189.22
2023-05-19T09:24:06.818Z,101189.95
2023-05-19T09:26:39.598Z,101188.30
2023-05-19T09:29:13.362Z,101185.82
2023-05-19T09:31:54.806Z,101176.80
2023-05-19T09:34:25.400Z,101173.94
2023-05-19T09:36:56.394Z,101176.33
2023-05-19T09:39:26.575Z,101176.16
2023-05-19T09:41:59.014Z,101171.85
2023-05-19T09:44:31.980Z,101174.69
2023-05-19T09:47:02.338Z,101170.52
2023-05-19T09:49:33.183Z,101171.09
2023-05-19T09:52:06.674Z,101165.45
2023-05-19T09:54:37.553Z,101168.91
2023-05-19T09:57:08.819Z,101164.30
2023-05-19T09:59:39.491Z,101162.98
2023-05-19T10:02:15.315Z,101162.49
2023-05-19T10:04:44.865Z,101154.14
2023-05-19T10:07:15.563Z,101157.38
2023-05-19T10:09:44.732Z,101152.83
2023-05-19T10:12:14.030Z,101153.36
2023-05-19T10:14:43.136Z,101155.73
2023-05-19T10:17:12.937Z,101149.26
2023-05-19T10:19:42.229Z,101153.46
2023-05-19T10:22:11.548Z,101149.03
2023-05-19T10:24:40.641Z,101146.06
2023-05-19T10:27:15.583Z,101141.38
2023-05-19T10:29:50.083Z,101145.13
2023-05-19T10:32:24.478Z,101146.02
2023-05-19T10:35:13.268Z,101147.04
2023-05-19T10:37:50.752Z,101144.92
2023-05-19T10:40:23.653Z,101145.61
2023-05-19T10:43:36.372Z,101148.81
2023-05-19T10:46:06.830Z,101153.29
2023-05-19T10:48:38.855Z,101153.08
2023-05-19T10:51:12.488Z,101158.21
2023-05-19T10:53:46.874Z,101169.41
2023-05-19T10:56:34.464Z,101169.14
2023-05-19T10:59:04.429Z,101166.99
2023-05-19T11:01:35.394Z,101162.58
2023-05-19T11:04:13.067Z,101162.77
2023-05-19T11:06:52.170Z,101158.71
2023-05-19T11:09:34.077Z,101154.48
2023-05-19T11:12:08.014Z,101156.06
2023-05-19T11:14:37.085Z,101153.74
2023-05-19T11:17:14.883Z,101154.18
2023-05-19T11:19:54.375Z,101150.44
2023-05-19T11:22:27.741Z,101152.98
2023-05-19T11:24:57.021Z,101151.23
2023-05-19T11:27:33.964Z,101150.92
2023-05-19T11:30:15.377Z,101148.35
2023-05-19T11:32:45.136Z,101149.83
2023-05-19T11:35:15.125Z,101147.60
2023-05-19T11:37:43.908Z,101148.15
2023-05-19T11:40:14.176Z,101149.23
2023-05-19T11:42:43.306Z,101152.98
2023-05-19T11:45:12.599Z,101152.36
2023-05-19T11:48:00.256Z,101154.84
2023-05-19T11:50:33.792Z,101157.27
2023-05-19T11:53:02.871Z,101150.02
2023-05-19T11:55:33.060Z,101148.52
2023-05-19T11:58:04.695Z,101147.36
2023-05-19T12:00:41.069Z,101142.30
2023-05-19T12:03:10.684Z,101143.31
2023-05-19T12:05:45.081Z,101141.78
2023-05-19T12:08:14.314Z,101139.09
2023-05-19T12:10:43.909Z,101144.68
2023-05-19T12:13:13.327Z,101144.00
2023-05-19T12:15:43.135Z,101145.29
2023-05-19T12:18:12.869Z,101146.23
2023-05-19T12:20:41.864Z,101146.58
2023-05-19T12:23:11.050Z,101147.41
2023-05-19T12:25:40.237Z,101152.73
2023-05-19T12:28:09.434Z,101150.78
2023-05-19T12:30:39.037Z,101151.81
2023-05-19T12:33:10.528Z,101149.93
2023-05-19T12:35:39.694Z,101151.25
2023-05-19T12:38:11.161Z,101151.42
2023-05-19T12:40:41.440Z,101147.88
2023-05-19T12:43:21.546Z,101151.44
2023-05-19T12:45:50.543Z,101151.83
2023-05-19T12:48:23.133Z,101149.91
2023-05-19T12:50:56.172Z,101151.52
2023-05-19T12:53:27.149Z,101149.80
2023-05-19T12:55:56.630Z,101147.89
2023-05-19T12:58:27.122Z,101151.10
2023-05-19T13:01:01.001Z,101148.74
2023-05-19T13:03:30.979Z,101148.30
2023-05-19T13:06:00.661Z,101146.52
2023-05-19T13:08:31.088Z,101148.52
2023-05-19T13:11:00.193Z,101147.75
2023-05-19T13:13:29.280Z,101148.52
2023-05-19T13:15:58.498Z,101149.11
2023-05-19T13:18:28.194Z,101150.73
2023-05-19T13:20:58.985Z,101145.26
2023-05-19T13:23:29.277Z,101146.04
2023-05-19T13:25:58.156Z,101144.95
2023-05-19T13:28:27.295Z,101145.61
2023-05-19T13:30:56.650Z,101143.40
2023-05-19T13:33:25.724Z,101141.02
2023-05-19T13:35:54.792Z,101145.77
2023-05-19T13:38:24.465Z,101142.23
2023-05-19T13:40:55.375Z,101140.02
2023-05-19T13:43:24.353Z,101143.20
2023-05-19T13:45:53.520Z,101140.19
2023-05-19T13:48:22.702Z,101144.61
2023-05-19T13:50:55.019Z,101145.04
2023-05-19T13:53:24.341Z,101144.98
2023-05-19T13:55:56.011Z,101143.43
2023-05-19T13:58:25.285Z,101143.15
2023-05-19T14:00:57.585Z,101139.33
2023-05-19T14:03:27.554Z,101136.80
2023-05-19T14:05:56.701Z,101134.64
2023-05-19T14:08:26.965Z,101132.77
2023-05-19T14:10:56.603Z,101134.27
2023-05-19T14:13:33.035Z,101131.80
2023-05-19T14:16:05.091Z,101134.05
2023-05-19T14:18:34.947Z,101136.69
2023-05-19T14:21:04.028Z,101132.41
2023-05-19T14:23:33.226Z,101130.46
2023-05-19T14:26:02.234Z,101128.11
2023-05-19T14:28:31.322Z,101127.50
2023-05-19T14:31:02.360Z,101124.26
2023-05-19T14:33:35.461Z,101124.20
2023-05-19T14:36:11.702Z,101122.79
2023-05-19T14:38:44.221Z,101118.98
2023-05-19T14:41:15.324Z,101116.79
2023-05-19T14:43:45.203Z,101118.41
2023-05-19T14:46:15.753Z,101120.36
2023-05-19T14:48:44.760Z,101115.92
2023-05-19T14:51:14.271Z,101114.95
2023-05-19T14:53:43.569Z,101112.95
2023-05-19T14:56:12.884Z,101113.74
2023-05-19T14:58:42.573Z,101118.31
2023-05-19T15:01:12.206Z,101121.70
2023-05-19T15:03:41.851Z,101116.16
2023-05-19T15:06:11.917Z,101115.73
2023-05-19T15:08:42.338Z,101119.52
2023-05-19T15:11:11.737Z,101120.13
2023-05-19T15:13:41.141Z,101122.16
2023-05-19T15:16:17.042Z,101120.23
2023-05-19T15:18:47.321Z,101118.13
2023-05-19T15:21:16.525Z,101122.55
2023-05-19T15:23:46.274Z,101124.77
2023-05-19T15:26:15.954Z,101118.86
2023-05-19T15:28:45.242Z,101120.77
2023-05-19T15:31:14.346Z,101115.70
2023-05-19T15:33:43.774Z,101117.91
2023-05-19T15:36:16.924Z,101117.77
2023-05-19T15:38:46.030Z,101116.28
2023-05-19T15:41:15.337Z,101114.70
2023-05-19T15:43:48.548Z,101116.65
2023-05-19T15:46:19.997Z,101114.16
2023-05-19T15:48:48.882Z,101114.26
2023-05-19T15:51:17.944Z,101108.08
2023-05-19T15:53:48.241Z,101108.59
2023-05-19T15:56:19.906Z,101106.02
2023-05-19T15:58:56.509Z,101107.25
2023-05-19T16:01:27.192Z,101104.74
2023-05-19T16:03:56.532Z,101109.48
2023-05-19T16:06:28.105Z,101107.20
2023-05-19T16:08:59.716Z,101107.27
2023-05-19T16:11:29.859Z,101110.70
2023-05-19T16:14:00.525Z,101110.91
2023-05-19T16:16:30.540Z,101108.93
2023-05-19T16:19:00.123Z,101107.23
2023-05-19T16:21:29.728Z,101105.17
2023-05-19T16:23:58.723Z,101107.02
2023-05-19T16:26:30.196Z,101105.05
2023-05-19T16:28:59.185Z,101107.34
2023-05-19T16:31:29.554Z,101109.20
2023-05-19T16:34:00.226Z,101107.45
2023-05-19T16:36:30.191Z,101105.42
2023-05-19T16:38:59.201Z,101104.16
2023-05-19T16:41:28.343Z,101098.94
2023-05-19T16:43:58.482Z,101099.80
2023-05-19T16:46:29.212Z,101100.91
2023-05-19T16:49:01.834Z,101096.20
2023-05-19T16:51:31.784Z,101099.81
2023-05-19T16:54:01.280Z,101101.27
2023-05-19T16:56:30.692Z,101102.67
2023-05-19T16:59:00.403Z,101107.06
2023-05-19T17:01:29.913Z,101102.81
2023-05-19T17:04:00.034Z,101106.69
2023-05-19T17:06:30.263Z,101107.92
2023-05-19T17:08:59.889Z,101111.60
2023-05-19T17:11:29.493Z,101106.77
2023-05-19T17:13:59.356Z,101107.80
2023-05-19T17:16:28.799Z,101102.86
2023-05-19T17:18:58.107Z,101104.81
2023-05-19T17:21:27.998Z,101105.30
2023-05-19T17:23:57.673Z,101103.77
2023-05-19T17:26:27.515Z,101104.13
2023-05-19T17:28:57.530Z,101104.19
2023-05-19T17:31:28.253Z,101106.77
2023-05-19T17:33:58.616Z,101109.21
2023-05-19T17:36:28.212Z,101110.63
2023-05-19T17:38:57.788Z,101113.59
2023-05-19T17:41:27.302Z,101118.80
2023-05-19T17:43:57.617Z,101113.77
2023-05-19T17:46:27.365Z,101112.80
2023-05-19T17:48:57.505Z,101113.30
2023-05-19T17:51:28.068Z,101116.21
2023-05-19T17:53:59.418Z,101118.87
2023-05-19T17:56:32.553Z,101118.92
2023-05-19T17:59:02.386Z,101117.32
2023-05-19T18:01:35.570Z,101114.86
2023-05-19T18:04:07.468Z,101112.16
2023-05-19T18:06:40.123Z,101117.14
2023-05-19T18:09:14.070Z,101111.11
2023-05-19T18:11:43.548Z,101112.35
2023-05-19T18:14:13.845Z,101110.64
2023-05-19T18:16:44.182Z,101109.84
2023-05-19T18:19:14.082Z,101109.63
2023-05-19T18:21:43.335Z,101109.58
2023-05-19T18:24:12.748Z,101108.23
2023-05-19T18:26:42.920Z,101105.99
2023-05-19T18:29:12.668Z,101108.04
2023-05-19T18:31:42.816Z,101102.83
2023-05-19T18:34:14.497Z,101099.77
2023-05-19T18:36:44.275Z,101104.14
2023-05-19T18:39:15.568Z,101102.31
2023-05-19T18:41:48.964Z,101106.91
2023-05-19T18:44:18.639Z,101113.58
2023-05-19T18:46:47.818Z,101113.05
2023-05-19T18:49:18.170Z,101113.06
2023-05-19T18:51:49.077Z,101113.71
2023-05-19T18:54:20.186Z,101119.09
2023-05-19T18:56:50.886Z,101120.17
2023-05-19T18:59:20.349Z,101123.14
2023-05-19T19:01:49.985Z,101128.95
2023-05-19T19:04:19.680Z,101125.84
2023-05-19T19:06:50.703Z,101130.09
2023-05-19T19:09:23.503Z,101132.25
2023-05-19T19:11:52.910Z,101133.91
2023-05-19T19:14:23.123Z,101135.84
2023-05-19T19:16:54.870Z,101135.89
2023-05-19T19:19:28.820Z,101141.45
2023-05-19T19:22:03.168Z,101143.17
2023-05-19T19:24:33.182Z,101146.67
2023-05-19T19:27:03.552Z,101150.39
2023-05-19T19:29:33.042Z,101145.96
2023-05-19T19:32:02.839Z,101147.65
2023-05-19T19:34:32.913Z,101147.43
2023-05-19T19:37:03.272Z,101149.69
2023-05-19T19:39:33.130Z,101145.56
2023-05-19T19:42:02.532Z,101145.17
2023-05-19T19:44:31.832Z,101146.10
2023-05-19T19:47:01.218Z,101139.25
2023-05-19T19:49:30.534Z,101146.46
2023-05-19T19:52:00.460Z,101151.61
2023-05-19T19:54:29.631Z,101147.36
2023-05-19T19:56:59.990Z,101145.43
2023-05-19T19:59:30.586Z,101147.42
2023-05-19T20:01:59.811Z,101149.35
2023-05-19T20:04:29.721Z,101150.96
2023-05-19T20:06:59.114Z,101154.29
2023-05-19T20:09:29.574Z,101154.02
2023-05-19T20:11:58.626Z,101155.70
2023-05-19T20:14:28.334Z,101156.89
2023-05-19T20:17:02.391Z,101155.27
2023-05-19T20:19:37.748Z,101157.15
2023-05-19T20:22:07.357Z,101157.16
2023-05-19T20:24:37.119Z,101154.26
2023-05-19T20:27:07.948Z,101153.07
2023-05-19T20:29:37.780Z,101156.77
2023-05-19T20:32:07.194Z,101156.88
2023-05-19T20:34:36.711Z,101158.44
2023-05-19T20:37:06.576Z,101158.87
2023-05-19T20:39:35.814Z,101158.23
2023-05-19T20:42:05.723Z,101161.14
2023-05-19T20:44:34.795Z,101155.55
2023-05-19T20:47:04.719Z,101155.96
2023-05-19T20:49:33.915Z,101154.45
2023-05-19T20:52:03.328Z,101157.36
2023-05-19T20:54:32.718Z,101153.16
2023-05-19T20:57:06.848Z,101152.84
2023-05-19T20:59:36.865Z,101147.70
2023-05-19T21:02:08.069Z,101141.23
2023-05-19T21:04:37.112Z,101141.45
2023-05-19T21:07:06.670Z,101139.25
2023-05-19T21:09:35.898Z,101137.36
2023-05-19T21:12:05.397Z,101138.01
2023-05-19T21:14:34.497Z,101132.52
2023-05-19T21:17:03.757Z,101134.29
2023-05-19T21:19:33.046Z,101131.23
2023-05-19T21:22:02.578Z,101128.82
2023-05-19T21:24:32.097Z,101128.48
2023-05-19T21:27:02.337Z,101132.63
2023-05-19T21:29:31.516Z,101136.84
2023-05-19T21:32:01.677Z,101136.77
2023-05-19T21:34:30.742Z,101139.93
2023-05-19T21:37:00.472Z,101135.58
2023-05-19T21:39:30.361Z,101132.95
2023-05-19T21:42:00.111Z,101135.75
2023-05-19T21:44:31.721Z,101138.59
2023-05-19T21:47:02.001Z,101139.11
2023-05-19T21:49:31.757Z,101136.61
2023-05-19T21:52:01.356Z,101142.68
2023-05-19T21:54:30.657Z,101140.31
2023-05-19T21:56:59.997Z,101141.92
2023-05-19T21:59:29.356Z,101139.22
2023-05-19T22:01:58.879Z,101137.34
2023-05-19T22:04:31.945Z,101131.59
2023-05-19T22:07:01.285Z,101127.30
2023-05-19T22:09:30.524Z,101128.10
2023-05-19T22:11:59.756Z,101130.88
2023-05-19T22:14:29.131Z,101129.75
2023-05-19T22:16:58.257Z,101131.80
2023-05-19T22:19:27.373Z,101128.80
2023-05-19T22:22:09.798Z,101125.30
2023-05-19T22:24:42.774Z,101122.14
2023-05-19T22:27:12.242Z,101121.48
2023-05-19T22:29:41.238Z,101119.60
2023-05-19T22:32:12.596Z,101114.92
2023-05-19T22:34:42.652Z,101115.23
2023-05-19T22:37:11.804Z,101116.27
2023-05-19T22:39:40.693Z,101114.65
2023-05-19T22:42:09.903Z,101113.70
2023-05-19T22:44:38.977Z,101112.13
2023-05-19T22:47:13.918Z,101109.71
2023-05-19T22:49:43.422Z,101111.80
2023-05-19T22:52:13.730Z,101109.75
2023-05-19T22:54:44.003Z,101112.94
2023-05-19T22:57:13.275Z,101115.73
2023-05-19T22:59:42.871Z,101120.19
2023-05-19T23:02:11.969Z,101114.05
2023-05-19T23:04:40.853Z,101116.04
2023-05-19T23:07:10.546Z,101117.06
2023-05-19T23:09:39.971Z,101117.98
2023-05-19T23:12:08.939Z,101117.48
2023-05-19T23:14:38.350Z,101113.61
2023-05-19T23:17:07.255Z,101111.89
2023-05-19T23:19:37.467Z,101108.46
2023-05-19T23:22:06.165Z,101108.31
2023-05-19T23:24:35.238Z,101107.60
2023-05-19T23:27:04.061Z,101107.54
2023-05-19T23:29:33.031Z,101109.52
2023-05-19T23:32:01.834Z,101113.81
2023-05-19T23:34:32.237Z,101112.21
2023-05-19T23:37:01.130Z,101111.37
2023-05-19T23:39:29.832Z,101102.65
2023-05-19T23:41:58.817Z,101102.76
2023-05-19T23:44:28.021Z,101104.52
2023-05-19T23:46:56.828Z,101100.11
2023-05-19T23:49:26.940Z,101099.47
2023-05-19T23:51:56.043Z,101097.00
2023-05-19T23:54:24.821Z,101100.48
2023-05-19T23:56:53.801Z,101102.21
2023-05-19T23:59:22.909Z,101100.91
